Nearby METAR Reports

 

KSJC - San Jose, California, USA
Distance from station: NØ 14km
Oppdatert: 20/10/2019 13:13
Hovedsaklig skyet
Hovedsaklig skyet
 Vind fra calm
Vind: Stille
Temperatur: 12°C
Duggpunkt: 11°C
Fuktighet: 94%
Barometer: 1019 hPa
Clouds: Hovedsaklig skyet
Visibility: 16 km
Cloud details: Hovedsaklig skyet 213 m
2019/10/20 11:13 KSJC 201113Z AUTO 00000KT 10SM BKN007 12/11 A3009 RMK AO2 T01170106
KNUQ - Moffett Nas/Mtn, California, USA
Distance from station: N 14km
Oppdatert: 20/10/2019 12:56

 
Barometer: 1019.3 hPa
2019/10/20 10:56 KNUQ 201056Z A3010 RMK AO2 SLP197 PWINO $
 
KPAO - Palo Alto, California, USA
Distance from station: NNV 23km
Oppdatert: 20/10/2019 05:47
NOT Current
Delvis skyet
Delvis skyet
 Vind fra NV
Vind: NV 11 km/h
Temperatur: 14°C
Duggpunkt: 11°C
Fuktighet: 82%
Barometer: 1018.3 hPa
Clouds: Delvis skyet
Visibility: 16 km
Cloud details: Delvis skyet 610 m
2019/10/20 03:47 KPAO 200347Z 32006KT 10SM SCT020 14/11 A3007 RMK LAST
KRHV - San Jose/Reid, California, USA
Distance from station: ØNØ 19km
Oppdatert: 20/10/2019 06:55
NOT Current
Delvis skyet
Delvis skyet
 Vind fra calm
Vind: Stille
Temperatur: 14°C
Duggpunkt: 12°C
Fuktighet: 88%
Barometer: 1018.6 hPa
Clouds: Delvis skyet
Visibility: 16 km
Cloud details: Few Clouds 305 m
Delvis skyet 914 m
2019/10/20 04:55 KRHV 200455Z 00000KT 10SM FEW010 SCT030 14/12 A3008 RMK LAST
 
KOAK - Oakland, California, USA
Distance from station: NNV 50km
Oppdatert: 20/10/2019 12:53
Shallow fog, Klart
Shallow fog, Klart
 Vind fra NØ
Vind: NØ 6 km/h
Temperatur: 11°C
Duggpunkt: 10°C
Fuktighet: 94%
Barometer: 1019.3 hPa
Oversikt: Shallow Fog
Clouds: Klart
Visibility: 16 km
2019/10/20 10:53 KOAK 201053Z 04003KT 10SM MIFG CLR 11/10 A3010 RMK AO2 SLP192 T01110100
KSQL - San Carlos Airpo, California, USA
Distance from station: NV 34km
Oppdatert: 20/10/2019 05:47
NOT Current
Delvis skyet
Delvis skyet
 Vind fra calm
Vind: Stille
Temperatur: 14°C
Duggpunkt: 12°C
Fuktighet: 88%
Barometer: 1018.6 hPa
Clouds: Delvis skyet
Visibility: 16 km
Cloud details: Delvis skyet 488 m
2019/10/20 03:47 KSQL 200347Z 00000KT 10SM SCT016 14/12 A3008 RMK LAST
 
KSFO - San Francisco, California, USA
Distance from station: NV 49km
Oppdatert: 20/10/2019 12:56
Few Clouds
Few Clouds
 Vind fra VSV
Vind: VSV 6 km/h
Temperatur: 12°C
Duggpunkt: 9°C
Fuktighet: 82%
Barometer: 1019 hPa
Clouds: Few Clouds
Visibility: 16 km
Cloud details: Few Clouds 335 m
2019/10/20 10:56 KSFO 201056Z 24003KT 10SM FEW011 12/09 A3009 RMK AO2 SLP189 T01220089
KE16 - San Martin, California, USA
Distance from station: ØSØ 43km
Oppdatert: 20/10/2019 13:35
Hovedsaklig skyet
Hovedsaklig skyet
 Vind fra NNV
Vind: NNV 9 km/h
Temperatur: 12°C
Duggpunkt: 12°C
Fuktighet: 100%
Barometer: 1019.3 hPa
Clouds: Hovedsaklig skyet
Visibility: 16 km
Cloud details: Hovedsaklig skyet 488 m
2019/10/20 11:35 KE16 201135Z AUTO 33005KT 10SM BKN016 12/12 A3010 RMK AO2
 
KWVI - Watsonville, California, USA
Distance from station: SSØ 44km
Oppdatert: 20/10/2019 13:09
Overskyet
Overskyet
 Vind fra calm
Vind: Stille
Temperatur: 14°C
Duggpunkt: 12°C
Fuktighet: 88%
Barometer: 1018.6 hPa
Clouds: Overskyet
Visibility: 16 km
Cloud details: Overskyet 152 m
2019/10/20 11:09 KWVI 201109Z AUTO 00000KT 10SM OVC005 14/12 A3008 RMK AO2 T01390122
KHAF - Half Moon Bay, California, USA
Distance from station: VNV 50km
Oppdatert: 20/10/2019 13:40
Mist, Overskyet
Mist, Overskyet
 Vind fra calm
Vind: Stille
Temperatur: 6°C
Duggpunkt: 5°C
Fuktighet: 93%
Barometer: 1019 hPa
Oversikt: Mist
Clouds: Overskyet
Visibility: 2 km
Cloud details: Overskyet 61 m
2019/10/20 11:40 KHAF 201140Z AUTO 00000KT 1 1/4SM BR OVC002 06/05 A3009 RMK AO2
 
KHWD - Hayward, California, USA
Distance from station: N 44km
Oppdatert: 20/10/2019 12:54
Klart
Klart
 Vind fra calm
Vind: Stille
Temperatur: 13°C
Duggpunkt: 11°C
Fuktighet: 88%
Barometer: 1019 hPa
Clouds: Klart
Visibility: 16 km
2019/10/20 10:54 KHWD 201054Z AUTO 00000KT 10SM CLR 13/11 A3009 RMK AO2 SLP199 T01280111
KLVK - Livermore, California, USA
Distance from station: NNØ 51km
Oppdatert: 20/10/2019 13:34
Mist, Overskyet
Mist, Overskyet
 Vind fra S
Vind: S 7 km/h
Temperatur: 11°C
Duggpunkt: 11°C
Fuktighet: 100%
Barometer: 1019 hPa
Oversikt: Mist
Clouds: Overskyet
Visibility: 5 km
Cloud details: Overskyet 91 m
2019/10/20 11:34 KLVK 201134Z AUTO 17004KT 3SM BR OVC003 11/11 A3009 RMK AO2 T01060106